createdAt,value
2023-05-08T00:02:41.678Z,11.93
2023-05-08T00:05:47.930Z,12.07
2023-05-08T00:08:55.417Z,11.63
2023-05-08T00:12:01.384Z,11.14
2023-05-08T00:15:08.620Z,10.37
2023-05-08T00:18:14.879Z,10.56
2023-05-08T00:21:21.260Z,10.76
2023-05-08T00:24:28.795Z,10.96
2023-05-08T00:27:35.211Z,11.12
2023-05-08T00:30:42.798Z,11.13
2023-05-08T00:33:48.752Z,11.15
2023-05-08T00:36:54.886Z,11.01
2023-05-08T00:40:02.111Z,11.25
2023-05-08T00:43:08.311Z,11.27
2023-05-08T00:46:14.977Z,10.98
2023-05-08T00:49:21.581Z,11.24
2023-05-08T00:52:28.557Z,10.84
2023-05-08T00:55:36.354Z,11.02
2023-05-08T00:58:44.705Z,11.03
2023-05-08T01:01:52.138Z,11.01
2023-05-08T01:04:58.544Z,11.06
2023-05-08T01:08:04.912Z,11.14
2023-05-08T01:11:18.286Z,10.92
2023-05-08T01:14:32.570Z,11.06
2023-05-08T01:17:59.879Z,10.93
2023-05-08T01:21:14.372Z,10.82
2023-05-08T01:24:44.341Z,10.88
2023-05-08T01:28:40.706Z,10.87
2023-05-08T01:32:05.022Z,10.72
2023-05-08T01:35:22.750Z,9.77
2023-05-08T01:38:33.620Z,9.64
2023-05-08T01:41:42.463Z,10.30
2023-05-08T01:44:55.080Z,10.35
2023-05-08T01:48:07.993Z,9.79
2023-05-08T01:51:20.618Z,9.94
2023-05-08T01:54:31.014Z,10.13
2023-05-08T01:57:41.586Z,9.80
2023-05-08T02:00:49.909Z,9.26
2023-05-08T02:03:58.727Z,8.93
2023-05-08T02:07:05.952Z,8.50
2023-05-08T02:10:13.625Z,8.80
2023-05-08T02:13:23.591Z,9.40
2023-05-08T02:16:31.698Z,9.48
2023-05-08T02:19:42.418Z,9.72
2023-05-08T02:22:51.709Z,9.78
2023-05-08T02:25:58.672Z,9.67
2023-05-08T02:29:05.155Z,9.73
2023-05-08T02:32:12.343Z,10.08
2023-05-08T02:35:21.149Z,9.71
2023-05-08T02:38:28.402Z,9.79
2023-05-08T02:41:36.820Z,10.03
2023-05-08T02:44:43.099Z,9.51
2023-05-08T02:47:58.888Z,8.98
2023-05-08T02:51:22.466Z,8.87
2023-05-08T02:54:37.974Z,9.37
2023-05-08T02:57:49.316Z,9.48
2023-05-08T03:01:01.863Z,9.33
2023-05-08T03:04:10.909Z,8.50
2023-05-08T03:07:20.677Z,8.44
2023-05-08T03:10:33.154Z,8.74
2023-05-08T03:13:42.196Z,8.63
2023-05-08T03:16:51.808Z,8.79
2023-05-08T03:20:01.602Z,8.71
2023-05-08T03:23:10.571Z,8.90
2023-05-08T03:26:19.670Z,8.53
2023-05-08T03:29:27.084Z,8.59
2023-05-08T03:32:34.455Z,9.35
2023-05-08T03:35:41.377Z,9.24
2023-05-08T03:38:49.043Z,9.50
2023-05-08T03:41:56.977Z,9.57
2023-05-08T03:45:05.007Z,9.81
2023-05-08T03:48:12.691Z,9.70
2023-05-08T03:51:20.270Z,9.82
2023-05-08T03:54:28.700Z,9.98
2023-05-08T03:57:41.718Z,9.25
2023-05-08T04:01:00.311Z,9.52
2023-05-08T04:04:11.943Z,9.25
2023-05-08T04:07:24.423Z,9.74
2023-05-08T04:10:36.152Z,9.44
2023-05-08T04:13:50.281Z,9.26
2023-05-08T04:17:03.971Z,9.11
2023-05-08T04:20:14.931Z,9.30
2023-05-08T04:23:23.729Z,9.49
2023-05-08T04:26:32.091Z,10.30
2023-05-08T04:29:38.684Z,10.40
2023-05-08T04:32:46.740Z,9.77
2023-05-08T04:35:53.562Z,10.73
2023-05-08T04:38:59.851Z,10.46
2023-05-08T04:42:07.508Z,10.04
2023-05-08T04:45:14.126Z,10.42
2023-05-08T04:48:20.162Z,11.05
2023-05-08T04:51:26.481Z,10.52
2023-05-08T04:54:32.449Z,11.05
2023-05-08T04:57:39.966Z,11.54
2023-05-08T05:00:46.264Z,11.69
2023-05-08T05:03:52.683Z,11.86
2023-05-08T05:06:58.707Z,12.17
2023-05-08T05:10:05.756Z,12.27
2023-05-08T05:13:13.530Z,12.12
2023-05-08T05:16:20.056Z,12.24
2023-05-08T05:19:27.292Z,12.73
2023-05-08T05:22:34.340Z,11.81
2023-05-08T05:25:40.459Z,12.23
2023-05-08T05:28:48.722Z,12.65
2023-05-08T05:31:55.057Z,13.52
2023-05-08T05:35:01.611Z,14.07
2023-05-08T05:38:07.650Z,14.40
2023-05-08T05:41:13.677Z,14.22
2023-05-08T05:44:21.237Z,14.18
2023-05-08T05:47:27.623Z,14.31
2023-05-08T05:50:33.469Z,13.49
2023-05-08T05:53:39.754Z,13.42
2023-05-08T05:56:45.955Z,13.91
2023-05-08T05:59:54.752Z,13.73
2023-05-08T06:03:02.558Z,13.95
2023-05-08T06:06:09.151Z,13.74
2023-05-08T06:09:16.003Z,13.69
2023-05-08T06:12:22.186Z,14.41
2023-05-08T06:15:29.864Z,14.07
2023-05-08T06:18:35.959Z,14.37
2023-05-08T06:21:42.144Z,15.15
2023-05-08T06:24:48.399Z,15.00
2023-05-08T06:27:54.508Z,15.11
2023-05-08T06:31:02.482Z,15.02
2023-05-08T06:34:09.410Z,15.20
2023-05-08T06:37:15.681Z,15.13
2023-05-08T06:40:22.109Z,16.02
2023-05-08T06:43:28.350Z,15.81
2023-05-08T06:46:35.884Z,14.82
2023-05-08T06:49:42.138Z,15.70
2023-05-08T06:52:48.073Z,15.74
2023-05-08T06:55:54.071Z,15.41
2023-05-08T06:59:07.877Z,15.18
2023-05-08T07:02:17.121Z,16.56
2023-05-08T07:05:23.770Z,16.89
2023-05-08T07:08:30.349Z,16.96
2023-05-08T07:11:36.525Z,16.58
2023-05-08T07:14:42.561Z,16.85
2023-05-08T07:17:50.265Z,17.59
2023-05-08T07:20:56.566Z,17.00
2023-05-08T07:24:02.909Z,17.41
2023-05-08T07:27:08.843Z,17.63
2023-05-08T07:30:15.710Z,18.18
2023-05-08T07:33:23.582Z,18.22
2023-05-08T07:36:29.884Z,18.24
2023-05-08T07:39:36.280Z,18.75
2023-05-08T07:42:43.037Z,18.64
2023-05-08T07:45:49.524Z,19.55
2023-05-08T07:48:57.264Z,19.48
2023-05-08T07:52:03.454Z,19.68
2023-05-08T07:55:10.491Z,20.37
2023-05-08T07:58:16.793Z,18.98
2023-05-08T08:01:23.512Z,18.97
2023-05-08T08:04:31.426Z,19.24
2023-05-08T08:07:38.034Z,18.97
2023-05-08T08:10:44.268Z,19.56
2023-05-08T08:13:50.812Z,20.54
2023-05-08T08:16:57.214Z,20.50
2023-05-08T08:20:05.730Z,21.95
2023-05-08T08:23:11.637Z,21.96
2023-05-08T08:26:17.419Z,22.12
2023-05-08T08:29:23.702Z,22.21
2023-05-08T08:32:29.544Z,22.89
2023-05-08T08:35:38.259Z,22.24
2023-05-08T08:38:44.598Z,21.34
2023-05-08T08:41:51.188Z,20.81
2023-05-08T08:44:57.963Z,22.32
2023-05-08T08:48:04.943Z,21.28
2023-05-08T08:51:16.077Z,21.30
2023-05-08T08:54:24.952Z,21.52
2023-05-08T08:57:35.005Z,22.28
2023-05-08T09:00:42.793Z,22.66
2023-05-08T09:03:50.195Z,22.96
2023-05-08T09:06:58.384Z,24.15
2023-05-08T09:10:08.056Z,23.15
2023-05-08T09:13:14.442Z,23.65
2023-05-08T09:16:21.053Z,23.22
2023-05-08T09:19:29.195Z,23.63
2023-05-08T09:22:38.720Z,23.20
2023-05-08T09:25:46.292Z,23.02
2023-05-08T09:29:09.985Z,23.02
2023-05-08T09:32:20.198Z,23.10
2023-05-08T09:35:37.688Z,24.20
2023-05-08T09:38:45.297Z,23.84
2023-05-08T09:41:59.602Z,25.41
2023-05-08T09:45:06.708Z,23.83
2023-05-08T09:48:13.258Z,23.91
2023-05-08T09:51:19.751Z,25.07
2023-05-08T09:54:27.541Z,24.95
2023-05-08T09:57:36.490Z,24.78
2023-05-08T10:00:43.481Z,25.59
2023-05-08T10:03:50.957Z,24.96
2023-05-08T10:06:58.969Z,25.87
2023-05-08T10:10:08.196Z,25.25
2023-05-08T10:13:14.620Z,24.42
2023-05-08T10:16:22.236Z,24.40
2023-05-08T10:19:29.684Z,24.92
2023-05-08T10:22:39.999Z,25.16
2023-05-08T10:25:49.737Z,24.79
2023-05-08T10:28:58.253Z,26.02
2023-05-08T10:32:07.904Z,25.84
2023-05-08T10:35:13.936Z,24.63
2023-05-08T10:38:21.275Z,25.26
2023-05-08T10:41:30.211Z,25.14
2023-05-08T10:44:36.724Z,24.27
2023-05-08T10:47:53.410Z,25.48
2023-05-08T10:51:04.461Z,24.69
2023-05-08T10:54:14.950Z,24.31
2023-05-08T10:57:22.291Z,23.15
2023-05-08T11:00:33.346Z,23.34
2023-05-08T11:03:42.254Z,23.69
2023-05-08T11:06:52.957Z,23.62
2023-05-08T11:10:14.032Z,25.22
2023-05-08T11:13:29.477Z,23.57
2023-05-08T11:17:12.049Z,24.93
2023-05-08T11:20:18.379Z,24.16
2023-05-08T11:23:25.194Z,23.60
2023-05-08T11:26:40.901Z,23.93
2023-05-08T11:30:24.835Z,24.00
2023-05-08T11:33:32.085Z,24.98
2023-05-08T11:36:38.239Z,24.33
2023-05-08T11:39:44.334Z,24.28
2023-05-08T11:42:50.696Z,24.02
2023-05-08T11:46:03.156Z,23.60
2023-05-08T11:49:14.383Z,23.36
2023-05-08T11:52:21.279Z,24.50
2023-05-08T11:55:27.956Z,23.51
2023-05-08T11:58:33.905Z,23.93
2023-05-08T12:01:41.495Z,24.11
2023-05-08T12:04:48.530Z,24.22
2023-05-08T12:07:57.241Z,23.97
2023-05-08T12:11:03.351Z,23.69
2023-05-08T12:14:09.657Z,22.89
2023-05-08T12:17:20.120Z,23.40
2023-05-08T12:20:27.051Z,22.86
2023-05-08T12:23:34.589Z,24.64
2023-05-08T12:26:40.681Z,23.89
2023-05-08T12:29:47.521Z,24.04
2023-05-08T12:32:55.675Z,23.61
2023-05-08T12:36:02.290Z,24.23
2023-05-08T12:39:13.701Z,25.53
2023-05-08T12:42:20.362Z,23.86
2023-05-08T12:45:28.395Z,24.85
2023-05-08T12:48:36.065Z,25.60
2023-05-08T12:51:47.353Z,25.41
2023-05-08T12:54:54.162Z,25.88
2023-05-08T12:58:02.041Z,26.08
2023-05-08T13:01:10.358Z,26.62
2023-05-08T13:04:18.208Z,24.89
2023-05-08T13:07:24.938Z,25.30
2023-05-08T13:10:48.445Z,24.65
2023-05-08T13:13:54.904Z,24.29
2023-05-08T13:17:01.394Z,25.50
2023-05-08T13:20:11.649Z,24.75
2023-05-08T13:23:17.736Z,24.01
2023-05-08T13:26:25.717Z,26.08
2023-05-08T13:29:31.783Z,25.08
2023-05-08T13:32:38.144Z,23.57
2023-05-08T13:35:45.747Z,23.86
2023-05-08T13:38:54.868Z,24.30
2023-05-08T13:42:00.879Z,23.23
2023-05-08T13:45:08.357Z,24.40
2023-05-08T13:48:14.823Z,23.82
2023-05-08T13:51:22.851Z,23.05
2023-05-08T13:54:29.148Z,24.77
2023-05-08T13:57:35.642Z,25.71
2023-05-08T14:00:42.207Z,23.63
2023-05-08T14:03:48.297Z,24.15
2023-05-08T14:06:55.507Z,22.71
2023-05-08T14:10:01.813Z,22.08
2023-05-08T14:13:08.073Z,22.64
2023-05-08T14:16:16.362Z,22.30
2023-05-08T14:19:22.656Z,21.67
2023-05-08T14:22:30.423Z,21.70
2023-05-08T14:25:38.208Z,21.84
2023-05-08T14:28:44.362Z,22.13
2023-05-08T14:31:50.669Z,21.41
2023-05-08T14:34:57.129Z,21.98
2023-05-08T14:38:04.666Z,22.12
2023-05-08T14:41:10.980Z,21.98
2023-05-08T14:44:17.259Z,21.70
2023-05-08T14:47:24.586Z,21.89
2023-05-08T14:50:30.829Z,21.66
2023-05-08T14:53:38.900Z,21.66
2023-05-08T14:56:47.755Z,21.39
2023-05-08T14:59:55.810Z,21.98
2023-05-08T15:03:02.278Z,20.73
2023-05-08T15:06:09.123Z,20.29
2023-05-08T15:09:17.468Z,20.60
2023-05-08T15:12:24.029Z,20.67
2023-05-08T15:15:30.518Z,20.11
2023-05-08T15:18:36.945Z,20.18
2023-05-08T15:21:43.183Z,20.09
2023-05-08T15:24:50.752Z,19.90
2023-05-08T15:27:58.228Z,19.80
2023-05-08T15:31:05.852Z,19.63
2023-05-08T15:34:12.547Z,19.64
2023-05-08T15:37:18.761Z,19.26
2023-05-08T15:40:26.268Z,18.70
2023-05-08T15:43:32.807Z,19.09
2023-05-08T15:46:38.790Z,18.61
2023-05-08T15:49:44.946Z,19.01
2023-05-08T15:52:51.311Z,19.10
2023-05-08T15:55:58.646Z,18.78
2023-05-08T15:59:04.664Z,18.43
2023-05-08T16:02:11.028Z,18.21
2023-05-08T16:05:16.977Z,17.74
2023-05-08T16:08:23.199Z,17.20
2023-05-08T16:11:32.754Z,17.49
2023-05-08T16:14:39.114Z,16.88
2023-05-08T16:17:45.356Z,16.99
2023-05-08T16:20:51.505Z,16.98
2023-05-08T16:23:57.772Z,16.86
2023-05-08T16:27:05.443Z,16.91
2023-05-08T16:30:12.501Z,16.88
2023-05-08T16:33:18.449Z,16.95
2023-05-08T16:36:24.618Z,16.86
2023-05-08T16:39:30.625Z,16.65
2023-05-08T16:42:38.521Z,16.66
2023-05-08T16:45:44.617Z,16.48
2023-05-08T16:48:50.661Z,16.55
2023-05-08T16:51:56.590Z,16.53
2023-05-08T16:55:02.657Z,16.66
2023-05-08T16:58:10.260Z,16.50
2023-05-08T17:01:16.734Z,16.37
2023-05-08T17:04:23.041Z,16.34
2023-05-08T17:07:29.299Z,16.37
2023-05-08T17:10:35.911Z,16.31
2023-05-08T17:13:46.256Z,16.11
2023-05-08T17:16:52.401Z,16.26
2023-05-08T17:19:58.678Z,16.08
2023-05-08T17:23:04.744Z,16.08
2023-05-08T17:26:10.748Z,16.01
2023-05-08T17:29:18.112Z,15.94
2023-05-08T17:32:24.166Z,15.99
2023-05-08T17:35:30.255Z,15.69
2023-05-08T17:38:43.240Z,15.67
2023-05-08T17:41:50.383Z,15.72
2023-05-08T17:44:57.967Z,15.91
2023-05-08T17:48:04.538Z,15.66
2023-05-08T17:51:13.463Z,15.62
2023-05-08T17:54:19.708Z,15.60
2023-05-08T17:57:26.010Z,15.51
2023-05-08T18:00:33.562Z,15.39
2023-05-08T18:03:40.125Z,15.54
2023-05-08T18:06:47.936Z,15.60
2023-05-08T18:09:54.124Z,15.45
2023-05-08T18:13:00.612Z,15.34
2023-05-08T18:16:08.467Z,15.33
2023-05-08T18:19:14.960Z,15.28
2023-05-08T18:22:21.022Z,14.71
2023-05-08T18:25:26.934Z,14.31
2023-05-08T18:28:33.391Z,14.71
2023-05-08T18:31:41.021Z,14.39
2023-05-08T18:34:47.367Z,14.64
2023-05-08T18:37:53.743Z,14.84
2023-05-08T18:41:02.191Z,14.96
2023-05-08T18:44:09.759Z,14.75
2023-05-08T18:47:17.231Z,14.92
2023-05-08T18:50:24.435Z,15.00
2023-05-08T18:53:31.502Z,15.04
2023-05-08T18:56:38.774Z,14.92
2023-05-08T18:59:45.309Z,14.90
2023-05-08T19:02:53.056Z,15.05
2023-05-08T19:05:59.556Z,14.93
2023-05-08T19:09:06.084Z,15.11
2023-05-08T19:12:12.596Z,14.89
2023-05-08T19:15:19.285Z,15.07
2023-05-08T19:18:27.029Z,14.92
2023-05-08T19:21:34.288Z,14.91
2023-05-08T19:24:40.962Z,15.06
2023-05-08T19:27:47.086Z,15.28
2023-05-08T19:30:53.495Z,14.94
2023-05-08T19:34:01.491Z,14.98
2023-05-08T19:37:07.923Z,14.77
2023-05-08T19:40:16.461Z,14.73
2023-05-08T19:43:22.864Z,14.70
2023-05-08T19:46:29.160Z,14.67
2023-05-08T19:49:36.626Z,14.69
2023-05-08T19:52:42.761Z,14.47
2023-05-08T19:55:49.511Z,14.56
2023-05-08T19:58:55.484Z,14.49
2023-05-08T20:02:01.536Z,14.50
2023-05-08T20:08:18.873Z,14.52
2023-05-08T20:11:25.074Z,14.39
2023-05-08T20:14:31.361Z,14.35
2023-05-08T20:17:37.611Z,14.38
2023-05-08T20:20:46.383Z,14.30
2023-05-08T20:23:52.337Z,14.43
2023-05-08T20:26:58.755Z,14.19
2023-05-08T20:30:05.884Z,14.02
2023-05-08T20:33:12.113Z,14.03
2023-05-08T20:36:20.120Z,14.06
2023-05-08T20:39:26.569Z,14.05
2023-05-08T20:42:33.461Z,13.94
2023-05-08T20:45:39.752Z,13.77
2023-05-08T20:48:45.848Z,13.96
2023-05-08T20:51:53.407Z,13.96
2023-05-08T20:54:59.907Z,14.05
2023-05-08T20:58:07.260Z,14.05
2023-05-08T21:01:13.794Z,13.72
2023-05-08T21:04:20.069Z,13.28
2023-05-08T21:07:27.751Z,13.32
2023-05-08T21:10:34.177Z,13.65
2023-05-08T21:13:40.706Z,13.82
2023-05-08T21:16:46.691Z,13.80
2023-05-08T21:19:52.710Z,13.68
2023-05-08T21:23:00.345Z,13.83
2023-05-08T21:26:06.683Z,13.64
2023-05-08T21:29:13.050Z,13.55
2023-05-08T21:32:19.526Z,13.50
2023-05-08T21:35:25.659Z,13.74
2023-05-08T21:38:33.727Z,13.69
2023-05-08T21:41:40.026Z,13.76
2023-05-08T21:44:46.263Z,13.74
2023-05-08T21:47:52.638Z,13.91
2023-05-08T21:50:59.530Z,13.58
2023-05-08T21:54:07.200Z,13.74
2023-05-08T21:57:13.453Z,13.73
2023-05-08T22:00:20.335Z,13.59
2023-05-08T22:03:27.095Z,13.33
2023-05-08T22:06:33.434Z,13.18
2023-05-08T22:09:41.325Z,12.74
2023-05-08T22:12:48.089Z,12.70
2023-05-08T22:15:54.208Z,12.73
2023-05-08T22:19:00.501Z,13.15
2023-05-08T22:22:06.923Z,13.11
2023-05-08T22:25:14.887Z,13.21
2023-05-08T22:28:21.247Z,13.16
2023-05-08T22:31:27.524Z,13.37
2023-05-08T22:34:33.680Z,13.53
2023-05-08T22:37:40.120Z,13.46
2023-05-08T22:40:48.404Z,13.54
2023-05-08T22:43:54.934Z,13.64
2023-05-08T22:47:01.666Z,13.67
2023-05-08T22:50:09.452Z,13.82
2023-05-08T22:53:16.808Z,13.80
2023-05-08T22:56:24.713Z,13.47
2023-05-08T22:59:30.949Z,13.78
2023-05-08T23:02:37.440Z,13.68
2023-05-08T23:05:45.097Z,13.70
2023-05-08T23:08:51.377Z,13.77
2023-05-08T23:11:59.084Z,13.67
2023-05-08T23:15:06.568Z,13.55
2023-05-08T23:18:12.965Z,13.42
2023-05-08T23:21:19.124Z,13.39
2023-05-08T23:24:25.512Z,13.36
2023-05-08T23:27:32.812Z,13.39
2023-05-08T23:30:39.042Z,13.62
2023-05-08T23:33:44.976Z,13.44
2023-05-08T23:36:50.997Z,13.61
2023-05-08T23:39:57.294Z,13.49
2023-05-08T23:43:06.291Z,13.48
2023-05-08T23:46:12.376Z,13.29
2023-05-08T23:49:18.436Z,13.40
2023-05-08T23:52:24.596Z,13.31
2023-05-08T23:55:31.314Z,13.26
2023-05-08T23:58:38.868Z,13.41
